Time;durP1;ratioP1;P1;durP2;ratioP2;P2;SDS_P1;SDS_P2;PMS_P1;PMS_P2;Temp;Humidity;BMP_temperature;BMP_pressure;BME280_temperature;BME280_humidity;BME280_pressure;Samples;Min_cycle;Max_cycle;Signal;HPM_P1;HPM_P2
2022/09/15 00:02:19;;;;;;;3.67;2.70;;;;;;;12.24;100.00;98622.89;1790190;78;21010;-46
2022/09/15 00:04:46;;;;;;;4.72;3.72;;;;;;;12.25;100.00;98630.50;1753288;80;20950;-44
2022/09/15 00:07:13;;;;;;;3.22;2.92;;;;;;;12.25;100.00;98623.76;1786799;78;20945;-45
2022/09/15 00:09:39;;;;;;;4.17;2.85;;;;;;;12.24;100.00;98617.98;1725734;81;21503;-46
2022/09/15 00:12:06;;;;;;;4.90;3.42;;;;;;;12.22;100.00;98621.27;1788518;78;20963;-48
2022/09/15 00:14:33;;;;;;;8.88;3.37;;;;;;;12.21;100.00;98620.41;1789267;79;20867;-45
2022/09/15 00:16:59;;;;;;;3.37;3.08;;;;;;;12.19;100.00;98610.20;1791597;79;20966;-46
2022/09/15 00:19:26;;;;;;;4.80;4.40;;;;;;;12.18;100.00;98619.75;1792993;79;20864;-45
2022/09/15 00:21:52;;;;;;;3.27;3.08;;;;;;;12.15;100.00;98615.47;1792361;78;21051;-45
2022/09/15 00:24:19;;;;;;;4.72;4.42;;;;;;;12.12;100.00;98614.33;1784961;79;21032;-47
2022/09/15 00:26:45;;;;;;;4.80;4.50;;;;;;;12.11;100.00;98616.16;1783154;78;21088;-46
2022/09/15 00:29:11;;;;;;;4.97;3.92;;;;;;;12.08;100.00;98617.72;1725273;81;21545;-48
2022/09/15 00:31:38;;;;;;;4.15;3.85;;;;;;;12.07;100.00;98609.77;1782474;78;21042;-46
2022/09/15 00:34:05;;;;;;;4.15;3.83;;;;;;;12.05;100.00;98611.70;1782460;78;21465;-48
2022/09/15 00:36:33;;;;;;;3.72;3.30;;;;;;;12.05;100.00;98611.22;1781722;79;21349;-48
2022/09/15 00:39:00;;;;;;;4.80;4.42;;;;;;;12.05;100.00;98617.09;1721571;81;21087;-44
2022/09/15 00:41:26;;;;;;;4.55;4.25;;;;;;;12.03;100.00;98615.86;1791760;79;21090;-48
2022/09/15 00:44:01;;;;;;;4.87;4.47;;;;;;;12.01;100.00;98617.79;1788796;79;21034;-45
2022/09/15 00:46:35;;;;;;;3.35;3.15;;;;;;;11.99;100.00;98625.12;1792987;79;21263;-46
2022/09/15 00:49:26;;;;;;;5.92;3.50;;;;;;;11.96;100.00;98617.27;1799281;79;21447;-46
2022/09/15 00:52:01;;;;;;;3.17;3.08;;;;;;;11.94;100.00;98617.00;1792960;79;21334;-45
2022/09/15 00:54:38;;;;;;;3.30;2.98;;;;;;;11.92;100.00;98614.89;1790758;79;21424;-46
2022/09/15 00:57:10;;;;;;;2.83;2.62;;;;;;;11.91;100.00;98614.54;1727026;80;21079;-47
2022/09/15 00:59:38;;;;;;;5.35;4.28;;;;;;;11.88;100.00;98614.27;1788151;79;21248;-45
2022/09/15 01:02:15;;;;;;;4.92;4.55;;;;;;;11.88;100.00;98613.40;1796828;78;21034;-45
2022/09/15 01:04:41;;;;;;;5.83;5.17;;;;;;;11.86;100.00;98609.46;1796508;78;21061;-47
2022/09/15 01:07:10;;;;;;;5.12;4.50;;;;;;;11.85;100.00;98606.87;1800733;78;21047;-48
2022/09/15 01:09:46;;;;;;;4.37;3.98;;;;;;;11.83;100.00;98604.27;1792817;78;21037;-45
2022/09/15 01:12:13;;;;;;;5.50;4.95;;;;;;;11.83;100.00;98600.23;1793711;79;21132;-49
2022/09/15 01:14:39;;;;;;;4.22;3.92;;;;;;;11.83;100.00;98601.58;1788898;79;21065;-48
2022/09/15 01:17:38;;;;;;;4.00;3.70;;;;;;;11.84;100.00;98606.48;1730557;80;21526;-46
2022/09/15 01:20:50;;;;;;;3.90;3.40;;;;;;;11.85;100.00;98600.13;1729607;81;21038;-48
2022/09/15 01:23:47;;;;;;;3.95;3.62;;;;;;;11.87;100.00;98597.70;1793256;78;21722;-48
2022/09/15 01:26:42;;;;;;;3.47;3.20;;;;;;;11.90;100.00;98592.11;1796435;78;21293;-48
2022/09/15 01:29:32;;;;;;;3.92;3.45;;;;;;;11.93;100.00;98587.82;1792521;78;21021;-48
2022/09/15 01:35:04;;;;;;;4.75;4.37;;;;;;;11.99;100.00;98573.88;1793696;78;21093;-48
2022/09/15 01:37:35;;;;;;;3.58;3.37;;;;;;;12.02;100.00;98573.67;1737557;79;21427;-48
2022/09/15 01:40:02;;;;;;;5.22;4.83;;;;;;;12.06;100.00;98572.49;1799320;78;21816;-48
2022/09/15 01:42:29;;;;;;;4.70;4.40;;;;;;;12.11;100.00;98577.05;1797179;79;21409;-48
2022/09/15 01:45:01;;;;;;;4.60;4.30;;;;;;;12.15;100.00;98570.09;1734978;80;21186;-48
2022/09/15 01:47:27;;;;;;;6.00;5.50;;;;;;;12.20;100.00;98567.91;1794743;79;21066;-48
2022/09/15 01:50:04;;;;;;;3.77;3.47;;;;;;;12.25;100.00;98562.53;1794229;78;21508;-48
2022/09/15 01:52:31;;;;;;;6.45;4.42;;;;;;;12.30;100.00;98556.33;1790857;78;21691;-48
2022/09/15 01:55:01;;;;;;;4.03;3.83;;;;;;;12.35;100.00;98550.09;1790887;79;21132;-46
2022/09/15 01:57:28;;;;;;;3.60;3.37;;;;;;;12.41;100.00;98548.80;1765229;79;21128;-47
2022/09/15 01:59:54;;;;;;;4.70;4.40;;;;;;;12.46;100.00;98550.65;1795666;78;21658;-46
2022/09/15 02:02:27;;;;;;;3.67;3.05;;;;;;;12.50;100.00;98548.94;1794508;78;21113;-49
2022/09/15 02:04:59;;;;;;;4.15;3.95;;;;;;;12.54;100.00;98552.28;1729476;80;21851;-44
2022/09/15 02:07:34;;;;;;;2.90;2.60;;;;;;;12.58;100.00;98553.80;1795100;78;21081;-47
2022/09/15 02:10:15;;;;;;;4.47;3.87;;;;;;;12.62;100.00;98557.10;1793811;79;21560;-46
2022/09/15 02:12:49;;;;;;;3.98;3.70;;;;;;;12.67;100.00;98554.45;1792157;79;21006;-46
2022/09/15 02:15:22;;;;;;;3.62;3.42;;;;;;;12.71;100.00;98558.63;1788989;78;21002;-46
2022/09/15 02:17:52;;;;;;;3.45;3.25;;;;;;;12.74;100.00;98553.48;1796613;79;21101;-46
2022/09/15 02:20:24;;;;;;;3.20;3.00;;;;;;;12.77;100.00;98552.75;1792903;79;21355;-48
2022/09/15 02:22:56;;;;;;;3.25;3.00;;;;;;;12.81;100.00;98558.80;1795302;78;21054;-45
2022/09/15 02:25:27;;;;;;;4.12;3.67;;;;;;;12.84;100.00;98554.00;1733113;80;21125;-47
2022/09/15 02:27:55;;;;;;;4.03;3.70;;;;;;;12.88;100.00;98558.69;1794108;79;21019;-45
2022/09/15 02:30:22;;;;;;;3.30;3.10;;;;;;;12.91;100.00;98555.77;1791753;78;21190;-47
2022/09/15 02:32:58;;;;;;;3.17;2.87;;;;;;;12.95;100.00;98552.32;1788177;79;21026;-46
2022/09/15 02:35:27;;;;;;;3.62;3.33;;;;;;;12.97;100.00;98551.23;1732048;80;21063;-48
2022/09/15 02:37:53;;;;;;;3.58;3.15;;;;;;;12.99;100.00;98550.64;1767549;79;21789;-47
2022/09/15 02:40:20;;;;;;;3.80;3.50;;;;;;;13.01;100.00;98552.73;1788784;78;21129;-49
2022/09/15 02:42:57;;;;;;;3.92;3.30;;;;;;;13.04;100.00;98551.61;1784480;79;21830;-46
2022/09/15 02:45:24;;;;;;;3.00;2.80;;;;;;;13.03;100.00;98544.00;1787707;78;21369;-46
2022/09/15 02:47:51;;;;;;;2.80;2.60;;;;;;;13.05;100.00;98546.10;1789764;79;21314;-47
2022/09/15 02:50:17;;;;;;;3.25;2.40;;;;;;;13.06;100.00;98546.48;1796228;78;20943;-46
2022/09/15 02:52:44;;;;;;;2.77;2.25;;;;;;;13.08;100.00;98543.66;1792765;78;20915;-45
2022/09/15 02:55:11;;;;;;;7.83;2.47;;;;;;;13.08;100.00;98544.52;1785629;78;20895;-48
2022/09/15 02:57:37;;;;;;;2.27;2.17;;;;;;;13.08;100.00;98535.56;1790238;79;21003;-46
2022/09/15 03:00:14;;;;;;;2.98;2.77;;;;;;;13.07;100.00;98518.48;1786394;79;20911;-48
2022/09/15 03:02:45;;;;;;;3.98;2.25;;;;;;;13.08;100.00;98508.55;1787622;79;20957;-46
2022/09/15 03:05:13;;;;;;;2.92;2.72;;;;;;;13.06;100.00;98516.77;1792658;79;20946;-49
2022/09/15 03:07:39;;;;;;;2.52;2.42;;;;;;;13.06;100.00;98517.25;1784948;78;21103;-45
2022/09/15 03:10:07;;;;;;;2.42;2.33;;;;;;;13.07;100.00;98510.87;1783699;79;20860;-46
2022/09/15 03:12:38;;;;;;;3.10;2.90;;;;;;;13.07;100.00;98502.77;1791630;78;20954;-46
2022/09/15 03:15:07;;;;;;;6.58;2.42;;;;;;;13.08;100.00;98505.35;1790149;78;21018;-46
2022/09/15 03:17:38;;;;;;;3.22;2.92;;;;;;;13.09;100.00;98498.97;1788076;78;20946;-45
2022/09/15 03:20:06;;;;;;;4.65;3.22;;;;;;;13.12;100.00;98501.91;1728586;81;21087;-46
2022/09/15 03:22:32;;;;;;;3.45;3.25;;;;;;;13.13;100.00;98494.17;1789457;78;20904;-48
2022/09/15 03:24:59;;;;;;;2.58;2.47;;;;;;;13.14;100.00;98490.52;1790424;78;20900;-46
2022/09/15 03:27:26;;;;;;;2.10;2.00;;;;;;;13.15;100.00;98486.36;1787934;79;20926;-46
2022/09/15 03:29:52;;;;;;;2.75;2.55;;;;;;;13.16;100.00;98485.88;1783995;78;21127;-47
2022/09/15 03:32:18;;;;;;;4.25;3.72;;;;;;;13.19;100.00;98482.91;1789579;79;21034;-45
2022/09/15 03:34:45;;;;;;;2.72;2.47;;;;;;;13.19;100.00;98479.72;1785881;79;21023;-45
2022/09/15 03:37:11;;;;;;;2.65;2.47;;;;;;;13.20;100.00;98482.80;1783972;79;21035;-46
2022/09/15 03:39:38;;;;;;;4.08;3.80;;;;;;;13.20;100.00;98471.98;1785882;79;21034;-49
2022/09/15 03:42:05;;;;;;;3.15;2.95;;;;;;;13.22;100.00;98471.38;1793835;79;21120;-47
2022/09/15 03:44:31;;;;;;;5.30;2.50;;;;;;;13.21;100.00;98468.30;1791245;79;21417;-46
2022/09/15 03:46:58;;;;;;;2.70;2.50;;;;;;;13.21;100.00;98467.44;1790715;79;21057;-47
2022/09/15 03:49:24;;;;;;;3.22;3.08;;;;;;;13.22;100.00;98466.47;1794495;79;21097;-45
2022/09/15 03:51:51;;;;;;;4.97;2.70;;;;;;;13.23;100.00;98465.00;1795169;79;21038;-47
2022/09/15 03:54:18;;;;;;;3.98;2.67;;;;;;;13.24;100.00;98465.86;1797008;78;21519;-49
2022/09/15 03:56:50;;;;;;;3.35;3.25;;;;;;;13.24;100.00;98473.48;1733073;80;22096;-46
2022/09/15 03:59:13;;;;;;;4.83;3.15;;;;;;;13.26;100.00;98478.77;1788988;79;21069;-46
2022/09/15 04:01:40;;;;;;;3.50;3.25;;;;;;;13.26;100.00;98490.92;1794939;79;21100;-47
2022/09/15 04:04:06;;;;;;;3.85;3.55;;;;;;;13.30;100.00;98499.14;1792238;78;21090;-49
2022/09/15 04:06:34;;;;;;;5.47;2.83;;;;;;;13.32;100.00;98505.30;1797769;77;21089;-46
2022/09/15 04:09:00;;;;;;;3.80;3.47;;;;;;;13.36;100.00;98514.00;1794739;79;21198;-45
2022/09/15 04:11:26;;;;;;;3.22;2.98;;;;;;;13.37;100.00;98516.59;1791530;78;21018;-45
2022/09/15 04:13:53;;;;;;;3.45;2.65;;;;;;;13.38;100.00;98516.96;1791398;78;21086;-44
2022/09/15 04:16:26;;;;;;;3.00;2.77;;;;;;;13.38;100.00;98506.16;1788552;78;21085;-46
2022/09/15 04:18:53;;;;;;;3.85;3.00;;;;;;;13.39;100.00;98511.06;1789479;78;21176;-46
2022/09/15 04:21:23;;;;;;;3.12;2.58;;;;;;;13.38;100.00;98514.26;1787838;78;21228;-44
2022/09/15 04:23:50;;;;;;;4.33;2.08;;;;;;;13.41;100.00;98527.55;1733830;80;21122;-47
2022/09/15 04:26:27;;;;;;;2.90;2.70;;;;;;;13.43;100.00;98522.02;1791804;78;21049;-46
2022/09/15 04:28:54;;;;;;;3.60;2.17;;;;;;;13.46;100.00;98517.70;1790208;79;21483;-46
2022/09/15 04:31:20;;;;;;;3.35;2.35;;;;;;;13.48;100.00;98503.09;1794368;79;21049;-46
2022/09/15 04:33:47;;;;;;;4.08;2.02;;;;;;;13.51;100.00;98505.56;1792983;77;21210;-46
2022/09/15 04:36:17;;;;;;;5.03;1.90;;;;;;;13.54;100.00;98508.00;1789867;79;21022;-45
2022/09/15 04:38:44;;;;;;;5.58;1.82;;;;;;;13.55;100.00;98502.97;1796318;79;21348;-46
2022/09/15 04:41:12;;;;;;;6.25;2.45;;;;;;;13.59;100.00;98500.89;1788207;78;21063;-46
2022/09/15 04:43:43;;;;;;;2.22;2.12;;;;;;;13.60;100.00;98494.02;1782892;78;21073;-48
2022/09/15 04:46:11;;;;;;;2.72;2.52;;;;;;;13.65;100.00;98488.22;1785262;78;21150;-45
2022/09/15 04:48:38;;;;;;;4.95;2.15;;;;;;;13.69;100.00;98484.30;1788633;78;21068;-49
2022/09/15 04:51:12;;;;;;;3.55;2.17;;;;;;;13.72;100.00;98465.10;1789638;78;21042;-45
2022/09/15 04:55:33;;;;;;;2.95;2.77;;;;;;;13.82;100.00;98463.38;1793347;78;27737;-46
2022/09/15 04:58:02;;;;;;;3.00;2.85;;;;;;;13.82;100.00;98457.97;1773106;79;21160;-47
2022/09/15 05:00:30;;;;;;;3.30;3.10;;;;;;;13.85;100.00;98463.63;1770476;79;21193;-45
2022/09/15 05:02:59;;;;;;;3.47;3.22;;;;;;;13.87;100.00;98471.95;1778296;79;21058;-47
2022/09/15 05:05:27;;;;;;;3.87;3.67;;;;;;;13.91;100.00;98475.28;1777823;79;21501;-45
2022/09/15 05:07:54;;;;;;;3.85;3.55;;;;;;;13.93;100.00;98464.72;1771575;78;21076;-47
2022/09/15 05:10:20;;;;;;;2.98;2.77;;;;;;;13.97;100.00;98457.19;1776795;79;21080;-45
2022/09/15 05:12:47;;;;;;;3.52;3.33;;;;;;;14.01;100.00;98454.13;1769652;79;21244;-46
2022/09/15 05:17:37;;;;;;;4.92;2.80;;;;;;;14.14;100.00;98446.32;1863377;75;27350;-48
2022/09/15 05:20:05;;;;;;;4.78;2.40;;;;;;;14.17;100.00;98446.08;1839110;75;20977;-45
2022/09/15 05:22:31;;;;;;;2.85;2.55;;;;;;;14.22;100.00;98453.30;1839909;77;22962;-47
2022/09/15 05:24:58;;;;;;;9.20;2.02;;;;;;;14.28;100.00;98447.41;1833343;77;21087;-47
2022/09/15 05:27:24;;;;;;;6.65;2.50;;;;;;;14.33;100.00;98442.45;1836968;75;21068;-46
2022/09/15 05:29:50;;;;;;;7.08;1.87;;;;;;;14.39;100.00;98441.95;1838336;75;21419;-48
2022/09/15 05:32:17;;;;;;;4.45;2.45;;;;;;;14.46;100.00;98442.32;1839777;76;21080;-44
2022/09/15 05:34:44;;;;;;;6.92;2.27;;;;;;;14.50;100.00;98439.20;1836604;75;21889;-46
2022/09/15 05:37:11;;;;;;;7.75;3.20;;;;;;;14.56;100.00;98433.75;1843095;77;21495;-45
2022/09/15 05:39:38;;;;;;;3.58;2.85;;;;;;;14.60;100.00;98432.03;1839666;76;21076;-45
2022/09/15 05:42:05;;;;;;;6.45;3.35;;;;;;;14.63;100.00;98430.39;1838892;77;21038;-48
2022/09/15 05:44:31;;;;;;;6.67;3.50;;;;;;;14.66;100.00;98438.27;1837821;75;20889;-45
2022/09/15 05:46:58;;;;;;;6.85;3.67;;;;;;;14.67;100.00;98439.98;1839560;75;20854;-48
2022/09/15 05:49:24;;;;;;;4.42;3.02;;;;;;;14.69;100.00;98449.34;1840607;75;20906;-47
2022/09/15 05:51:50;;;;;;;4.62;2.98;;;;;;;14.72;100.00;98449.05;1838775;75;21364;-45
2022/09/15 05:54:17;;;;;;;5.55;3.08;;;;;;;14.74;100.00;98457.92;1842243;77;20945;-48
2022/09/15 05:56:43;;;;;;;7.92;2.85;;;;;;;14.75;100.00;98456.44;1839129;75;20918;-47
2022/09/15 05:59:10;;;;;;;7.17;3.30;;;;;;;14.78;100.00;98447.69;1816232;77;21127;-46
2022/09/15 06:01:36;;;;;;;4.53;3.00;;;;;;;14.81;100.00;98454.18;1818539;77;20910;-48
2022/09/15 06:04:03;;;;;;;7.53;3.40;;;;;;;14.83;100.00;98456.27;1815448;77;20936;-46
2022/09/15 06:06:30;;;;;;;3.25;2.30;;;;;;;14.86;100.00;98460.94;1819651;77;20885;-45
2022/09/15 06:08:56;;;;;;;8.23;3.17;;;;;;;14.89;100.00;98457.09;1823301;77;20858;-47
2022/09/15 06:11:26;;;;;;;5.60;2.87;;;;;;;14.93;100.00;98454.00;1816089;77;21719;-48
2022/09/15 06:13:52;;;;;;;7.72;3.37;;;;;;;14.97;100.00;98453.25;1824111;77;20877;-46
2022/09/15 06:16:21;;;;;;;6.10;3.20;;;;;;;15.01;100.00;98451.48;1816535;77;20858;-48
2022/09/15 06:18:48;;;;;;;4.55;2.67;;;;;;;15.06;100.00;98448.36;1820232;77;20874;-48
2022/09/15 06:21:23;;;;;;;2.98;2.45;;;;;;;15.09;100.00;98454.88;1822132;77;20882;-47
2022/09/15 06:23:54;;;;;;;10.40;3.47;;;;;;;15.11;100.00;98456.97;1818643;77;21111;-45
2022/09/15 06:26:21;;;;;;;5.55;2.95;;;;;;;15.14;100.00;98465.66;1813697;77;21024;-48
2022/09/15 06:28:53;;;;;;;3.85;3.02;;;;;;;15.19;100.00;98467.13;1821147;77;21063;-44
2022/09/15 06:31:20;;;;;;;4.87;2.42;;;;;;;15.21;100.00;98465.16;1810973;77;21620;-46
2022/09/15 06:33:52;;;;;;;3.30;2.77;;;;;;;15.24;100.00;98467.08;1822855;77;21102;-46
2022/09/15 06:36:20;;;;;;;5.67;2.65;;;;;;;15.28;100.00;98466.33;1815296;77;21191;-48
2022/09/15 06:38:46;;;;;;;4.30;2.55;;;;;;;15.31;100.00;98464.72;1806855;77;21095;-45
2022/09/15 06:41:13;;;;;;;4.95;2.70;;;;;;;15.33;100.00;98449.16;1808755;77;21043;-47
2022/09/15 06:43:39;;;;;;;6.90;1.85;;;;;;;15.36;100.00;98452.95;1810122;77;21276;-49
2022/09/15 06:46:09;;;;;;;2.92;2.72;;;;;;;15.38;100.00;98459.97;1818257;77;20991;-48
2022/09/15 06:48:37;;;;;;;6.33;2.27;;;;;;;15.41;100.00;98458.82;1814284;77;22035;-46
2022/09/15 06:51:05;;;;;;;2.80;2.52;;;;;;;15.44;100.00;98454.49;1811591;77;21068;-47
2022/09/15 06:53:34;;;;;;;4.45;2.80;;;;;;;15.47;100.00;98457.81;1807335;77;21061;-47
2022/09/15 06:56:10;;;;;;;3.02;2.72;;;;;;;15.51;100.00;98453.81;1804334;77;21138;-48
2022/09/15 06:58:39;;;;;;;7.55;2.42;;;;;;;15.54;100.00;98453.22;1808260;77;21118;-46
2022/09/15 07:01:09;;;;;;;4.60;2.22;;;;;;;15.57;100.00;98458.38;1780783;77;23429;-49
2022/09/15 07:03:37;;;;;;;2.70;2.50;;;;;;;15.59;100.00;98455.02;1811062;77;21585;-47
2022/09/15 07:06:05;;;;;;;3.50;2.85;;;;;;;15.60;100.00;98442.67;1810317;77;21381;-48
2022/09/15 07:09:41;;;;;;;5.15;4.15;;;;;;;15.66;100.00;98439.41;1774325;78;28594;-46
2022/09/15 07:12:08;;;;;;;6.30;3.90;;;;;;;15.65;100.00;98441.75;1742044;80;21088;-50
2022/09/15 07:14:35;;;;;;;4.85;3.30;;;;;;;15.68;100.00;98437.42;1740930;80;21540;-47
2022/09/15 07:17:01;;;;;;;6.10;4.30;;;;;;;15.72;100.00;98444.30;1741000;80;21354;-47
2022/09/15 07:19:28;;;;;;;4.42;3.72;;;;;;;15.76;100.00;98438.08;1742247;80;21440;-48
2022/09/15 07:21:54;;;;;;;5.22;3.98;;;;;;;15.79;100.00;98437.33;1740829;80;21124;-49
2022/09/15 07:24:20;;;;;;;4.55;4.17;;;;;;;15.83;100.00;98440.10;1739267;80;21054;-46
2022/09/15 07:26:47;;;;;;;4.70;3.40;;;;;;;15.91;100.00;98441.29;1738575;80;21319;-47
2022/09/15 07:29:14;;;;;;;4.12;3.75;;;;;;;15.97;100.00;98436.16;1738873;80;21325;-46
2022/09/15 07:31:40;;;;;;;5.50;4.03;;;;;;;16.02;100.00;98435.72;1736208;80;21067;-48
2022/09/15 07:34:07;;;;;;;5.47;3.65;;;;;;;16.08;100.00;98433.80;1710517;81;21531;-49
2022/09/15 07:36:34;;;;;;;4.03;3.72;;;;;;;16.15;100.00;98437.69;1711047;81;21119;-45
2022/09/15 07:39:01;;;;;;;6.08;3.92;;;;;;;16.21;100.00;98425.77;1705488;81;21097;-46
2022/09/15 07:41:29;;;;;;;6.70;4.08;;;;;;;16.30;100.00;98428.63;1708503;81;20906;-47
2022/09/15 07:43:57;;;;;;;4.58;3.50;;;;;;;16.36;100.00;98426.19;1688567;82;21071;-46
2022/09/15 07:46:24;;;;;;;6.05;3.52;;;;;;;16.42;100.00;98426.97;1697181;82;21085;-47
2022/09/15 07:48:53;;;;;;;3.58;3.37;;;;;;;16.48;100.00;98424.20;1696337;82;21323;-46
2022/09/15 07:51:20;;;;;;;4.53;4.15;;;;;;;16.52;100.00;98423.77;1692192;82;21150;-46
2022/09/15 07:53:47;;;;;;;6.83;3.45;;;;;;;16.57;100.00;98428.28;1695633;82;21062;-46
2022/09/15 07:56:17;;;;;;;4.50;3.80;;;;;;;16.59;100.00;98429.47;1690298;83;22428;-45
2022/09/15 07:58:42;;;;;;;3.55;3.33;;;;;;;16.61;100.00;98422.08;1671624;83;21096;-47
2022/09/15 08:01:15;;;;;;;3.50;3.25;;;;;;;16.66;100.00;98423.02;1682050;84;21181;-46
2022/09/15 08:03:44;;;;;;;3.40;3.20;;;;;;;16.69;100.00;98418.64;1679158;83;21155;-49
2022/09/15 08:06:11;;;;;;;5.17;4.15;;;;;;;16.71;100.00;98420.22;1681469;83;21086;-49
2022/09/15 08:08:38;;;;;;;3.52;3.22;;;;;;;16.74;100.00;98415.86;1666693;83;21144;-47
2022/09/15 08:11:06;;;;;;;5.10;3.25;;;;;;;16.76;100.00;98420.63;1709356;81;21338;-49
2022/09/15 08:13:33;;;;;;;4.10;3.20;;;;;;;16.77;100.00;98420.12;1711187;81;21051;-45
2022/09/15 08:16:09;;;;;;;4.53;3.75;;;;;;;16.79;100.00;98416.27;1713647;81;21783;-46
2022/09/15 08:18:35;;;;;;;7.78;3.58;;;;;;;16.82;100.00;98405.12;1711712;81;21850;-47
2022/09/15 08:21:06;;;;;;;5.85;3.20;;;;;;;16.86;100.00;98406.53;1711364;81;21052;-46
2022/09/15 08:23:32;;;;;;;3.42;3.10;;;;;;;16.89;100.00;98413.54;1704215;81;20992;-47
2022/09/15 08:25:59;;;;;;;6.58;2.33;;;;;;;16.92;100.00;98417.34;1706130;81;21052;-48
2022/09/15 08:28:25;;;;;;;3.65;2.50;;;;;;;16.95;100.00;98406.16;1671226;83;21821;-46
2022/09/15 08:31:03;;;;;;;2.52;2.30;;;;;;;16.97;100.00;98402.80;1708386;81;21440;-46
2022/09/15 08:33:31;;;;;;;2.70;2.08;;;;;;;17.03;100.00;98404.92;1710711;81;21058;-47
2022/09/15 08:36:07;;;;;;;2.25;1.90;;;;;;;17.08;100.00;98403.99;1714771;82;21065;-47
2022/09/15 08:38:33;;;;;;;2.15;1.95;;;;;;;17.13;100.00;98400.31;1709111;82;20951;-47
2022/09/15 08:41:06;;;;;;;2.67;2.47;;;;;;;17.19;100.00;98401.08;1708626;82;21110;-46
2022/09/15 08:44:01;;;;;;;2.27;2.02;;;;;;;17.25;100.00;98396.42;1712509;81;20911;-47
2022/09/15 08:46:36;;;;;;;3.52;1.65;;;;;;;17.30;100.00;98390.52;1713028;81;20946;-47
2022/09/15 08:49:19;;;;;;;3.27;1.92;;;;;;;17.34;100.00;98398.26;1713546;82;20947;-50
2022/09/15 08:51:47;;;;;;;2.30;2.10;;;;;;;17.37;100.00;98391.14;1711424;81;20982;-48
2022/09/15 08:54:22;;;;;;;2.70;1.80;;;;;;;17.40;100.00;98385.91;1694795;81;21128;-48
2022/09/15 08:56:48;;;;;;;5.78;1.70;;;;;;;17.42;100.00;98392.06;1711154;81;20932;-48
2022/09/15 08:59:16;;;;;;;3.08;1.47;;;;;;;17.44;100.00;98390.03;1709769;81;20983;-47
2022/09/15 09:02:08;;;;;;;3.67;1.50;;;;;;;17.43;100.00;98390.20;1709008;81;20919;-45
2022/09/15 09:04:58;;;;;;;2.37;1.67;;;;;;;17.43;100.00;98392.42;1710804;81;21732;-48
2022/09/15 09:07:41;;;;;;;1.72;1.50;;;;;;;17.44;100.00;98393.28;1677561;83;21123;-46
2022/09/15 09:10:20;;;;;;;3.08;1.40;;;;;;;17.45;100.00;98380.01;1702671;82;21410;-48
2022/09/15 09:13:10;;;;;;;3.33;1.85;;;;;;;17.45;100.00;98375.92;1709513;82;20874;-47
2022/09/15 09:15:54;;;;;;;2.52;1.17;;;;;;;17.45;100.00;98378.64;1709235;82;21689;-48
2022/09/15 09:18:29;;;;;;;2.40;1.10;;;;;;;17.46;100.00;98377.14;1705202;82;21573;-49
2022/09/15 09:21:13;;;;;;;3.27;1.10;;;;;;;17.47;100.00;98378.00;1706494;82;21230;-47
2022/09/15 09:23:56;;;;;;;1.45;0.98;;;;;;;17.48;100.00;98377.00;1707453;82;21104;-45
2022/09/15 09:26:22;;;;;;;1.32;1.02;;;;;;;17.50;100.00;98385.37;1709052;82;21052;-49
2022/09/15 09:28:57;;;;;;;1.00;0.82;;;;;;;17.54;100.00;98378.60;1708566;81;21658;-46
2022/09/15 09:31:24;;;;;;;0.90;0.80;;;;;;;17.59;100.00;98380.89;1710014;82;20961;-49
2022/09/15 09:34:16;;;;;;;4.10;1.17;;;;;;;17.62;100.00;98385.54;1709841;82;21487;-48
2022/09/15 09:36:43;;;;;;;2.50;0.98;;;;;;;17.67;100.00;98381.88;1707026;82;21149;-47
2022/09/15 09:39:15;;;;;;;1.07;0.95;;;;;;;17.73;100.00;98375.81;1714641;81;21078;-46
2022/09/15 09:41:42;;;;;;;5.92;1.15;;;;;;;17.79;100.00;98372.98;1710495;82;21104;-48
2022/09/15 09:44:12;;;;;;;1.10;1.00;;;;;;;17.84;100.00;98378.84;1717553;82;21266;-50
2022/09/15 09:46:40;;;;;;;1.65;0.90;;;;;;;17.90;100.00;98384.17;1721606;82;21189;-46
2022/09/15 09:49:19;;;;;;;2.58;1.17;;;;;;;17.93;100.00;98379.80;1713438;82;21120;-45
2022/09/15 09:51:58;;;;;;;1.55;0.80;;;;;;;17.98;100.00;98378.81;1693908;82;21048;-46
2022/09/15 09:54:27;;;;;;;1.40;0.90;;;;;;;18.03;100.00;98380.59;1711283;82;21042;-48
2022/09/15 09:57:23;;;;;;;1.30;1.02;;;;;;;18.06;100.00;98382.98;1717917;82;21085;-47
2022/09/15 09:59:50;;;;;;;1.10;1.00;;;;;;;18.08;100.00;98380.47;1704978;82;21163;-47
2022/09/15 10:02:23;;;;;;;1.00;0.90;;;;;;;18.11;100.00;98384.25;1705021;82;21093;-48
2022/09/15 10:04:56;;;;;;;0.90;0.80;;;;;;;18.13;100.00;98383.57;1707114;82;20967;-46
2022/09/15 10:07:26;;;;;;;1.00;0.90;;;;;;;18.17;100.00;98381.41;1699121;82;21089;-49
2022/09/15 10:09:57;;;;;;;1.00;0.90;;;;;;;18.18;100.00;98389.94;1705649;81;22407;-46
2022/09/15 10:12:28;;;;;;;1.02;0.82;;;;;;;18.20;100.00;98389.78;1715127;81;21144;-47
2022/09/15 10:14:58;;;;;;;2.25;0.90;;;;;;;18.20;100.00;98396.59;1712541;81;21627;-46
2022/09/15 10:17:28;;;;;;;0.90;0.90;;;;;;;18.19;100.00;98386.70;1718423;81;21031;-49
2022/09/15 10:21:47;;;;;;;1.00;0.80;;;;;;;18.22;100.00;98382.29;1791541;77;28590;-48
2022/09/15 10:24:33;;;;;;;0.88;0.82;;;;;;;18.19;100.00;98392.16;1770079;78;21465;-47
2022/09/15 10:27:29;;;;;;;1.57;0.80;;;;;;;18.17;100.00;98390.94;1720640;80;20926;-49
2022/09/15 10:30:16;;;;;;;3.10;1.00;;;;;;;18.17;100.00;98398.25;1771878;78;20937;-49
2022/09/15 10:32:43;;;;;;;0.98;0.88;;;;;;;18.14;100.00;98396.68;1776714;78;20890;-49
2022/09/15 10:35:17;;;;;;;0.80;0.70;;;;;;;18.11;100.00;98395.14;1776519;78;20982;-48
2022/09/15 10:38:03;;;;;;;2.85;0.88;;;;;;;18.09;100.00;98383.55;1773938;78;21274;-48
2022/09/15 10:40:55;;;;;;;0.72;0.72;;;;;;;18.08;100.00;98378.25;1772423;78;21081;-49
2022/09/15 10:43:33;;;;;;;2.52;0.80;;;;;;;18.10;100.00;98374.38;1772288;79;21447;-45
2022/09/15 10:46:29;;;;;;;0.88;0.78;;;;;;;18.11;100.00;98371.14;1773648;78;20894;-46
2022/09/15 10:49:18;;;;;;;3.85;0.85;;;;;;;18.13;100.00;98371.81;1736787;80;21531;-48
2022/09/15 10:52:17;;;;;;;1.40;0.70;;;;;;;18.15;100.00;98367.94;1698967;80;21865;-47
2022/09/15 10:55:07;;;;;;;2.45;0.80;;;;;;;18.17;100.00;98363.70;1734517;78;21568;-50
2022/09/15 10:57:48;;;;;;;2.75;1.00;;;;;;;18.21;100.00;98371.90;1771821;78;21043;-50
2022/09/15 11:00:21;;;;;;;2.17;1.00;;;;;;;18.25;100.00;98377.91;1767634;79;21092;-47
2022/09/15 11:03:14;;;;;;;1.10;0.93;;;;;;;18.26;100.00;98379.12;1769147;79;21571;-47
2022/09/15 11:06:10;;;;;;;1.72;0.80;;;;;;;18.27;100.00;98372.66;1768837;79;21132;-49
2022/09/15 11:09:09;;;;;;;3.08;0.70;;;;;;;18.26;100.00;98366.86;1769045;79;21506;-47
2022/09/15 11:12:05;;;;;;;1.72;0.62;;;;;;;18.25;100.00;98362.42;1768403;79;22584;-47
2022/09/15 11:14:53;;;;;;;2.85;0.62;;;;;;;18.22;100.00;98358.63;1765642;79;21092;-47
2022/09/15 11:17:32;;;;;;;2.85;0.70;;;;;;;18.21;100.00;98353.34;1766412;79;21426;-47
2022/09/15 11:20:38;;;;;;;0.65;0.60;;;;;;;18.21;100.00;98361.00;1761083;79;21081;-46
2022/09/15 11:23:25;;;;;;;0.57;0.57;;;;;;;18.21;100.00;98355.56;1751429;79;21134;-49
2022/09/15 11:25:57;;;;;;;1.05;0.60;;;;;;;18.22;100.00;98345.52;1751535;79;21034;-49
2022/09/15 11:28:40;;;;;;;1.00;0.60;;;;;;;18.25;100.00;98349.30;1751246;79;21082;-47
2022/09/15 11:31:12;;;;;;;0.60;0.60;;;;;;;18.24;100.00;98344.36;1752734;79;21496;-47
2022/09/15 11:34:02;;;;;;;0.60;0.60;;;;;;;18.26;100.00;98340.13;1749082;79;21099;-47
2022/09/15 11:36:40;;;;;;;0.65;0.60;;;;;;;18.28;100.00;98340.84;1750019;79;21563;-48
2022/09/15 11:39:14;;;;;;;2.17;0.90;;;;;;;18.30;100.00;98338.28;1752840;79;21097;-47
2022/09/15 11:41:55;;;;;;;0.80;0.72;;;;;;;18.31;100.00;98335.91;1750801;79;21109;-47
2022/09/15 11:44:40;;;;;;;0.70;0.70;;;;;;;18.32;100.00;98334.05;1750368;79;21096;-49
2022/09/15 11:47:39;;;;;;;0.65;0.60;;;;;;;18.32;100.00;98332.18;1756116;79;21090;-48
2022/09/15 11:50:19;;;;;;;1.10;1.00;;;;;;;18.34;100.00;98334.75;1750674;79;21935;-48
2022/09/15 11:53:06;;;;;;;0.88;0.80;;;;;;;18.33;100.00;98327.08;1753250;79;21041;-48
2022/09/15 11:56:14;;;;;;;0.70;0.70;;;;;;;18.34;100.00;98324.71;1741908;79;21053;-49
2022/09/15 11:58:58;;;;;;;1.02;0.80;;;;;;;18.35;100.00;98317.40;1753792;79;21512;-47